Time;durP1;ratioP1;P1;durP2;ratioP2;P2;SDS_P1;SDS_P2;PMS_P1;PMS_P2;Temp;Humidity;BMP_temperature;BMP_pressure;BME280_temperature;BME280_humidity;BME280_pressure;Samples;Min_cycle;Max_cycle;Signal;HPM_P1;HPM_P2
2023/11/06 00:02:30;;;;;;;0.95;0.45;;;9.00;1.00;;;;;;7380285;19;20029;-73
2023/11/06 00:05:04;;;;;;;1.63;0.68;;;9.00;1.00;;;;;;7377835;19;20047;-73
2023/11/06 00:07:34;;;;;;;2.58;0.95;;;9.00;1.00;;;;;;7379848;19;20086;-72
2023/11/06 00:10:04;;;;;;;3.30;0.90;;;8.90;1.00;;;;;;7380144;19;20562;-72
2023/11/06 00:12:34;;;;;;;1.50;0.60;;;8.90;1.00;;;;;;7379441;19;20393;-73
2023/11/06 00:15:05;;;;;;;3.33;0.60;;;8.90;1.00;;;;;;7377493;19;20011;-72
2023/11/06 00:17:34;;;;;;;1.98;0.85;;;8.90;1.00;;;;;;7381017;19;20042;-72
2023/11/06 00:20:10;;;;;;;1.50;0.77;;;8.90;1.40;;;;;;7381865;19;20189;-72
2023/11/06 00:22:41;;;;;;;1.73;0.55;;;8.80;5.40;;;;;;7379123;19;20159;-72
2023/11/06 00:25:11;;;;;;;3.05;0.90;;;8.70;6.40;;;;;;7378445;19;20720;-72
2023/11/06 00:27:41;;;;;;;4.45;1.10;;;8.60;9.70;;;;;;7378439;19;20014;-73
2023/11/06 00:30:11;;;;;;;2.25;0.90;;;8.60;13.80;;;;;;7373815;19;20553;-72
2023/11/06 00:32:41;;;;;;;3.67;0.85;;;8.50;18.50;;;;;;7381765;19;20023;-73
2023/11/06 00:35:16;;;;;;;4.03;1.08;;;8.50;22.00;;;;;;7379297;19;20369;-72
2023/11/06 00:37:47;;;;;;;1.92;0.77;;;8.40;27.90;;;;;;7376876;19;20016;-72
2023/11/06 00:40:17;;;;;;;4.95;1.30;;;8.40;37.50;;;;;;7375925;19;20017;-72
2023/11/06 00:42:47;;;;;;;3.30;1.15;;;8.50;38.60;;;;;;7380544;19;20011;-70
2023/11/06 00:45:17;;;;;;;2.40;1.10;;;8.50;35.00;;;;;;7378471;19;20015;-72
2023/11/06 00:47:47;;;;;;;2.92;1.38;;;8.50;37.90;;;;;;7377600;19;20413;-71
2023/11/06 00:50:20;;;;;;;2.33;1.20;;;8.60;41.30;;;;;;7379864;19;20379;-72
2023/11/06 00:52:50;;;;;;;3.08;1.67;;;8.60;40.90;;;;;;7377888;19;20010;-71
2023/11/06 00:55:21;;;;;;;4.00;1.52;;;8.60;41.80;;;;;;7375227;19;20463;-71
2023/11/06 00:57:51;;;;;;;2.60;1.23;;;8.70;37.70;;;;;;7371460;19;20034;-71
2023/11/06 01:00:22;;;;;;;3.42;1.45;;;8.70;38.90;;;;;;7378222;19;20102;-72
2023/11/06 01:02:52;;;;;;;5.05;1.23;;;8.80;37.60;;;;;;7377271;19;20014;-72
2023/11/06 01:05:24;;;;;;;2.80;1.05;;;8.70;38.00;;;;;;7375903;19;20413;-71
2023/11/06 01:07:55;;;;;;;3.00;0.98;;;8.80;38.70;;;;;;7377856;19;20018;-72
2023/11/06 01:10:25;;;;;;;4.22;1.25;;;8.80;38.70;;;;;;7378736;19;20017;-70
2023/11/06 01:12:56;;;;;;;4.15;1.42;;;8.80;41.30;;;;;;7376864;19;20011;-71
2023/11/06 01:15:26;;;;;;;2.25;1.08;;;8.80;40.80;;;;;;7377612;19;20020;-71
2023/11/06 01:17:56;;;;;;;3.10;1.17;;;8.90;38.30;;;;;;7377932;19;20081;-72
2023/11/06 01:20:29;;;;;;;5.72;1.75;;;8.90;37.40;;;;;;7378636;19;20007;-72
2023/11/06 01:22:58;;;;;;;3.20;1.60;;;8.90;33.30;;;;;;7376259;19;20324;-73
2023/11/06 01:25:28;;;;;;;6.63;1.63;;;8.90;33.30;;;;;;7377672;19;20014;-72
2023/11/06 01:27:58;;;;;;;3.20;1.40;;;8.90;32.90;;;;;;7377803;19;20028;-73
2023/11/06 01:30:28;;;;;;;2.97;1.35;;;8.80;34.30;;;;;;7376950;19;20066;-71
2023/11/06 01:33:00;;;;;;;4.75;1.67;;;8.80;39.70;;;;;;7376665;19;20027;-71
2023/11/06 01:35:33;;;;;;;7.50;1.83;;;8.80;40.40;;;;;;7376115;19;20379;-72
2023/11/06 01:38:03;;;;;;;4.80;1.60;;;8.70;39.00;;;;;;7376359;19;20014;-71
2023/11/06 01:40:33;;;;;;;3.72;1.80;;;8.80;37.90;;;;;;7375732;19;20403;-71
2023/11/06 01:43:05;;;;;;;4.03;1.40;;;8.70;40.00;;;;;;7375606;19;20386;-72
2023/11/06 01:45:39;;;;;;;3.47;1.52;;;8.60;41.30;;;;;;7374828;19;20014;-72
2023/11/06 01:48:09;;;;;;;5.30;1.30;;;8.50;44.80;;;;;;7376529;19;20020;-71
2023/11/06 01:50:42;;;;;;;3.58;1.10;;;8.50;45.90;;;;;;7375720;19;20014;-72
2023/11/06 01:53:14;;;;;;;2.53;1.00;;;8.50;41.70;;;;;;7376052;19;20148;-71
2023/11/06 01:55:45;;;;;;;6.05;1.50;;;8.60;32.00;;;;;;7376549;19;20825;-71
2023/11/06 01:58:16;;;;;;;4.05;1.13;;;8.60;22.00;;;;;;7375630;19;20712;-71
2023/11/06 02:00:49;;;;;;;3.03;1.00;;;8.70;14.90;;;;;;7377256;19;20082;-71
2023/11/06 02:03:20;;;;;;;4.32;1.25;;;8.70;11.80;;;;;;7373285;19;20024;-72
2023/11/06 02:05:53;;;;;;;3.33;1.20;;;8.80;6.20;;;;;;7378784;19;20795;-71
2023/11/06 02:08:23;;;;;;;5.22;1.55;;;8.80;2.50;;;;;;7375495;19;20040;-75
2023/11/06 02:10:53;;;;;;;8.95;1.92;;;8.80;2.90;;;;;;7376447;19;20035;-76
2023/11/06 02:13:25;;;;;;;2.78;1.08;;;8.80;2.80;;;;;;7374231;19;20014;-75
2023/11/06 02:15:55;;;;;;;3.28;1.02;;;8.80;4.70;;;;;;7376000;19;20078;-72
2023/11/06 02:18:25;;;;;;;4.38;1.13;;;8.80;5.80;;;;;;7375663;19;20041;-71
2023/11/06 02:20:58;;;;;;;6.25;1.45;;;8.70;6.30;;;;;;7375814;19;20470;-72
2023/11/06 02:23:36;;;;;;;2.25;0.80;;;8.70;8.10;;;;;;7374103;19;20439;-72
2023/11/06 02:26:09;;;;;;;4.15;1.25;;;8.70;9.90;;;;;;7375271;19;20110;-72
2023/11/06 02:28:39;;;;;;;3.17;1.30;;;8.70;8.20;;;;;;7374969;19;20006;-71
2023/11/06 02:31:09;;;;;;;4.07;1.38;;;8.80;6.30;;;;;;7375789;19;20014;-72
2023/11/06 02:33:39;;;;;;;3.60;1.30;;;8.70;5.80;;;;;;7375525;19;20039;-71
2023/11/06 02:36:10;;;;;;;2.95;1.08;;;8.60;6.60;;;;;;7376092;19;20463;-72
2023/11/06 02:38:42;;;;;;;2.22;0.80;;;8.70;7.60;;;;;;7374856;19;20018;-71
2023/11/06 02:41:12;;;;;;;3.20;1.00;;;8.80;5.10;;;;;;7374694;19;20007;-72
2023/11/06 02:43:42;;;;;;;4.05;1.10;;;8.70;4.10;;;;;;7376517;19;20040;-72
2023/11/06 02:46:12;;;;;;;5.25;0.98;;;8.70;5.10;;;;;;7401798;19;20034;-71
2023/11/06 02:48:42;;;;;;;4.75;1.00;;;8.80;6.60;;;;;;7376811;19;20010;-71
2023/11/06 02:51:12;;;;;;;2.92;1.40;;;8.70;6.00;;;;;;7373701;19;20151;-72
2023/11/06 02:53:45;;;;;;;1.60;0.82;;;8.70;6.80;;;;;;7371205;19;20406;-72
2023/11/06 02:56:15;;;;;;;4.25;1.00;;;8.70;8.40;;;;;;7373986;19;20026;-72
2023/11/06 02:58:45;;;;;;;3.90;0.90;;;8.70;11.20;;;;;;7374834;19;20033;-71
2023/11/06 03:01:15;;;;;;;2.83;1.00;;;8.60;13.30;;;;;;7374315;19;20881;-71
2023/11/06 03:03:45;;;;;;;6.40;1.15;;;8.60;16.10;;;;;;7373692;19;20014;-72
2023/11/06 03:06:19;;;;;;;2.38;1.10;;;8.60;16.20;;;;;;7373147;19;20026;-71
2023/11/06 03:08:53;;;;;;;1.88;0.85;;;8.60;13.90;;;;;;7370378;19;20418;-72
2023/11/06 03:11:24;;;;;;;2.63;0.80;;;8.60;13.70;;;;;;7374878;19;20039;-71
2023/11/06 03:13:54;;;;;;;4.20;1.08;;;8.50;14.40;;;;;;7376452;19;20015;-72
2023/11/06 03:16:24;;;;;;;3.60;1.10;;;8.40;17.90;;;;;;7384434;19;20013;-71
2023/11/06 03:18:54;;;;;;;4.82;1.08;;;8.50;16.90;;;;;;7385008;19;20098;-72
2023/11/06 03:21:24;;;;;;;2.33;0.70;;;8.60;14.30;;;;;;7385459;19;20079;-72
2023/11/06 03:23:56;;;;;;;3.17;0.80;;;8.60;12.60;;;;;;7383956;19;20625;-72
2023/11/06 03:26:26;;;;;;;3.13;0.60;;;8.60;10.90;;;;;;7376918;19;20027;-71
2023/11/06 03:28:56;;;;;;;2.53;0.80;;;8.60;10.20;;;;;;7382917;19;20010;-72
2023/11/06 03:31:26;;;;;;;2.33;0.77;;;8.60;10.20;;;;;;7383932;19;20014;-72
2023/11/06 03:33:57;;;;;;;3.10;0.65;;;8.60;11.50;;;;;;7383158;19;20014;-72
2023/11/06 03:36:27;;;;;;;1.75;0.70;;;8.70;9.00;;;;;;7381619;19;20106;-71
2023/11/06 03:38:59;;;;;;;2.13;0.63;;;8.70;7.20;;;;;;7382702;19;20024;-72
2023/11/06 03:41:29;;;;;;;3.35;0.60;;;8.80;6.60;;;;;;7381860;19;20015;-71
2023/11/06 03:43:59;;;;;;;1.92;0.65;;;8.80;6.00;;;;;;7381719;19;20010;-72
2023/11/06 03:46:29;;;;;;;3.58;0.80;;;8.80;5.00;;;;;;7382310;19;20017;-71
2023/11/06 03:48:59;;;;;;;2.95;0.93;;;8.90;2.30;;;;;;7381285;19;20077;-71
2023/11/06 03:51:29;;;;;;;1.38;0.60;;;8.90;1.50;;;;;;7382454;19;20031;-72
2023/11/06 03:54:02;;;;;;;2.90;0.80;;;9.00;2.20;;;;;;7379440;19;20586;-71
2023/11/06 03:56:32;;;;;;;5.47;0.88;;;8.90;2.10;;;;;;7382311;19;20068;-71
2023/11/06 03:59:02;;;;;;;3.10;1.20;;;8.90;4.60;;;;;;7382004;19;20111;-70
2023/11/06 04:01:36;;;;;;;1.60;0.90;;;9.00;3.80;;;;;;7377515;19;20534;-71
2023/11/06 04:04:06;;;;;;;3.33;1.02;;;8.90;2.80;;;;;;7379139;19;20014;-70
2023/11/06 04:06:37;;;;;;;3.00;0.70;;;8.90;5.70;;;;;;7380266;19;20470;-71
2023/11/06 04:09:09;;;;;;;3.55;0.63;;;8.90;5.20;;;;;;7380813;19;20018;-71
2023/11/06 04:11:40;;;;;;;4.82;1.40;;;8.90;5.30;;;;;;7380671;19;20103;-71
2023/11/06 04:14:10;;;;;;;3.38;0.90;;;8.80;6.20;;;;;;7377128;19;20572;-71
2023/11/06 04:16:40;;;;;;;3.03;1.00;;;8.90;7.00;;;;;;7376650;19;20507;-70
2023/11/06 04:19:11;;;;;;;2.40;1.00;;;8.80;4.70;;;;;;7380439;19;20010;-70
2023/11/06 04:21:41;;;;;;;2.38;0.88;;;8.80;7.20;;;;;;7380919;19;20035;-72
2023/11/06 04:24:13;;;;;;;3.47;0.90;;;8.80;7.80;;;;;;7379420;19;20444;-70
2023/11/06 04:26:43;;;;;;;2.15;0.85;;;8.90;9.00;;;;;;7376614;19;20522;-71
2023/11/06 04:29:13;;;;;;;6.90;1.38;;;8.90;10.60;;;;;;7378654;19;20011;-71
2023/11/06 04:31:43;;;;;;;2.15;0.82;;;8.90;8.40;;;;;;7376257;19;20582;-71
2023/11/06 04:34:13;;;;;;;2.58;0.93;;;8.90;10.50;;;;;;7379127;19;20031;-71
2023/11/06 04:36:43;;;;;;;3.13;1.05;;;8.90;12.60;;;;;;7380614;19;20400;-71
2023/11/06 04:39:16;;;;;;;3.65;0.90;;;8.90;13.00;;;;;;7378056;19;20073;-72
2023/11/06 04:41:46;;;;;;;4.50;1.03;;;8.90;12.20;;;;;;7378669;19;26726;-72
2023/11/06 04:44:16;;;;;;;1.88;0.80;;;8.90;13.10;;;;;;7376310;19;20022;-72
2023/11/06 04:46:46;;;;;;;3.70;1.63;;;8.80;10.50;;;;;;7378211;19;20007;-72
2023/11/06 04:49:17;;;;;;;2.05;0.65;;;8.80;11.40;;;;;;7377964;19;20086;-72
2023/11/06 04:51:47;;;;;;;2.35;1.13;;;8.70;11.20;;;;;;7378126;19;20026;-72
2023/11/06 04:54:23;;;;;;;2.05;0.70;;;8.70;13.50;;;;;;7377158;19;20898;-71
2023/11/06 04:56:53;;;;;;;1.60;0.70;;;8.70;13.10;;;;;;7379168;19;20010;-72
2023/11/06 04:59:23;;;;;;;1.38;0.65;;;8.80;13.10;;;;;;7378191;19;20502;-71
2023/11/06 05:01:53;;;;;;;3.50;1.00;;;8.80;11.80;;;;;;7376521;19;20021;-71
2023/11/06 05:04:23;;;;;;;2.35;0.77;;;8.80;13.40;;;;;;7379885;19;20018;-70
2023/11/06 05:06:55;;;;;;;2.38;1.13;;;8.80;13.50;;;;;;7380480;19;20010;-70
2023/11/06 05:09:28;;;;;;;3.40;1.30;;;8.80;15.40;;;;;;7378747;19;20006;-71
2023/11/06 05:11:58;;;;;;;3.58;0.80;;;8.80;15.30;;;;;;7379030;19;20031;-70
2023/11/06 05:14:28;;;;;;;4.32;1.17;;;8.80;16.70;;;;;;7377465;19;20044;-70
2023/11/06 05:16:58;;;;;;;4.55;0.90;;;8.80;20.50;;;;;;7371190;19;20014;-71
2023/11/06 05:19:29;;;;;;;3.17;1.13;;;8.70;24.60;;;;;;7374849;19;20018;-72
2023/11/06 05:22:00;;;;;;;3.35;1.27;;;8.70;28.20;;;;;;7360004;19;20082;-72
2023/11/06 05:24:32;;;;;;;3.35;1.23;;;8.60;30.90;;;;;;7364105;19;20887;-72
2023/11/06 05:27:02;;;;;;;3.00;1.27;;;8.70;32.00;;;;;;7363438;19;20013;-72
2023/11/06 05:29:33;;;;;;;3.92;1.10;;;8.70;33.80;;;;;;7363171;19;20663;-71
2023/11/06 05:32:03;;;;;;;4.10;1.27;;;8.70;34.60;;;;;;7360052;19;20110;-72
2023/11/06 05:34:34;;;;;;;3.08;1.20;;;8.70;33.40;;;;;;7361865;19;20435;-71
2023/11/06 05:37:04;;;;;;;3.55;1.55;;;8.60;34.40;;;;;;7364737;19;20037;-72
2023/11/06 05:39:39;;;;;;;4.47;1.60;;;8.60;35.70;;;;;;7363303;19;20056;-72
2023/11/06 05:42:09;;;;;;;5.93;1.33;;;8.60;33.10;;;;;;7366277;19;20017;-72
2023/11/06 05:44:43;;;;;;;4.05;1.48;;;8.60;31.90;;;;;;7365849;19;20035;-72
2023/11/06 05:47:13;;;;;;;5.53;1.40;;;8.50;38.00;;;;;;7366739;19;20035;-72
2023/11/06 05:49:44;;;;;;;4.93;1.58;;;8.40;39.70;;;;;;7368474;19;20043;-71
2023/11/06 05:52:15;;;;;;;5.10;1.70;;;8.30;43.60;;;;;;7365264;19;20640;-72
2023/11/06 05:54:47;;;;;;;7.25;1.75;;;8.30;47.90;;;;;;7367366;19;20010;-71
2023/11/06 05:57:17;;;;;;;7.32;1.67;;;8.20;52.80;;;;;;7369358;19;20018;-71
2023/11/06 05:59:47;;;;;;;6.18;1.90;;;8.10;57.70;;;;;;7369108;19;20003;-72
2023/11/06 06:02:17;;;;;;;3.28;1.30;;;8.10;58.10;;;;;;7362963;19;20165;-72
2023/11/06 06:04:47;;;;;;;6.07;1.40;;;8.10;61.50;;;;;;7365525;19;20043;-71
2023/11/06 06:07:17;;;;;;;3.67;1.02;;;8.10;59.60;;;;;;7366354;19;20908;-71
2023/11/06 06:09:51;;;;;;;2.75;1.30;;;8.00;59.90;;;;;;7379222;19;20023;-71
2023/11/06 06:12:21;;;;;;;5.80;1.48;;;8.10;56.60;;;;;;7380752;19;20058;-71
2023/11/06 06:14:51;;;;;;;2.67;1.05;;;8.10;50.40;;;;;;7364977;19;21338;-73
2023/11/06 06:17:21;;;;;;;4.10;1.20;;;8.00;48.00;;;;;;7364715;19;20010;-70
2023/11/06 06:19:51;;;;;;;2.33;1.17;;;7.90;49.70;;;;;;7366112;19;20054;-71
2023/11/06 06:22:21;;;;;;;4.35;1.23;;;8.00;55.20;;;;;;7362003;19;20530;-71
2023/11/06 06:24:54;;;;;;;3.70;1.00;;;8.00;49.90;;;;;;7364258;19;20388;-72
2023/11/06 06:27:24;;;;;;;2.58;1.40;;;8.00;47.60;;;;;;7365576;19;20017;-71
2023/11/06 06:29:54;;;;;;;5.50;2.17;;;8.00;44.80;;;;;;7364315;19;20019;-71
2023/11/06 06:32:24;;;;;;;6.97;2.10;;;8.00;44.30;;;;;;7360870;19;20093;-71
2023/11/06 06:34:54;;;;;;;6.63;2.90;;;8.00;42.60;;;;;;7374125;19;20036;-71
2023/11/06 06:37:24;;;;;;;8.20;2.60;;;8.00;41.20;;;;;;7377524;19;20395;-71
2023/11/06 06:39:57;;;;;;;5.38;2.80;;;8.00;41.30;;;;;;7377665;19;20466;-71
2023/11/06 06:42:28;;;;;;;3.63;2.00;;;7.90;41.40;;;;;;7373869;19;20027;-71
2023/11/06 06:44:58;;;;;;;6.07;2.13;;;8.00;40.70;;;;;;7375025;19;20011;-71
2023/11/06 06:47:28;;;;;;;4.47;1.95;;;7.90;41.80;;;;;;7377560;19;19999;-71
2023/11/06 06:49:58;;;;;;;7.07;2.03;;;8.00;41.40;;;;;;7374884;19;20498;-71
2023/11/06 06:52:28;;;;;;;5.40;1.80;;;8.10;38.70;;;;;;7382568;19;20449;-70
2023/11/06 06:55:00;;;;;;;5.22;1.42;;;8.10;34.30;;;;;;7382701;19;20023;-71
2023/11/06 06:57:30;;;;;;;5.20;1.80;;;8.10;32.70;;;;;;7378548;19;20010;-71
2023/11/06 07:00:02;;;;;;;3.85;1.70;;;8.20;31.50;;;;;;7379698;19;20007;-71
2023/11/06 07:02:32;;;;;;;9.00;2.13;;;8.30;25.90;;;;;;7382952;19;20107;-71
2023/11/06 07:05:03;;;;;;;3.92;1.60;;;8.30;23.20;;;;;;7377227;19;20371;-71
2023/11/06 07:07:33;;;;;;;3.63;1.50;;;8.40;18.00;;;;;;7380796;19;20007;-71
2023/11/06 07:10:08;;;;;;;5.90;2.20;;;8.40;16.60;;;;;;7379104;19;20015;-71
2023/11/06 07:12:38;;;;;;;5.95;2.35;;;8.50;13.40;;;;;;7376507;19;20794;-71
2023/11/06 07:15:09;;;;;;;4.80;2.17;;;8.50;12.00;;;;;;7382837;19;20022;-70
2023/11/06 07:17:40;;;;;;;4.25;1.63;;;8.60;4.90;;;;;;7382390;19;20015;-74
2023/11/06 07:20:15;;;;;;;5.07;1.83;;;8.70;1.30;;;;;;7382809;19;20091;-71
2023/11/06 07:22:45;;;;;;;5.63;2.10;;;8.80;1.00;;;;;;7381426;19;20006;-71
2023/11/06 07:25:18;;;;;;;3.97;2.10;;;8.80;1.00;;;;;;7381397;19;20014;-70
2023/11/06 07:27:49;;;;;;;5.47;1.92;;;8.80;1.00;;;;;;7382653;19;20093;-71
2023/11/06 07:30:19;;;;;;;12.82;1.88;;;8.80;1.00;;;;;;7383621;19;20463;-71
2023/11/06 07:32:49;;;;;;;11.20;1.88;;;8.80;1.00;;;;;;7381712;19;20003;-71
2023/11/06 07:35:19;;;;;;;3.38;1.65;;;8.80;1.00;;;;;;7381999;19;20077;-71
2023/11/06 07:37:49;;;;;;;4.40;1.70;;;8.90;1.00;;;;;;7382028;19;20010;-71
2023/11/06 07:40:22;;;;;;;2.30;1.33;;;8.90;1.00;;;;;;7382283;19;20032;-71
2023/11/06 07:42:52;;;;;;;6.07;1.55;;;9.00;1.00;;;;;;7381961;19;20066;-70
2023/11/06 07:45:21;;;;;;;3.85;1.33;;;9.00;1.00;;;;;;7381660;19;20542;-72
2023/11/06 07:47:51;;;;;;;3.50;1.17;;;9.10;1.00;;;;;;7381984;19;20081;-71
2023/11/06 07:50:22;;;;;;;4.28;1.50;;;9.20;1.00;;;;;;7382114;19;20340;-72
2023/11/06 07:52:53;;;;;;;4.30;1.48;;;9.30;1.00;;;;;;7382617;19;20017;-72
2023/11/06 07:55:26;;;;;;;6.97;1.40;;;9.30;1.00;;;;;;7383028;19;20396;-71
2023/11/06 07:57:56;;;;;;;2.92;1.08;;;9.40;1.00;;;;;;7382057;19;20390;-71
2023/11/06 08:00:26;;;;;;;4.88;1.02;;;9.50;1.00;;;;;;7383003;19;20398;-71
2023/11/06 08:03:12;;;;;;;3.60;0.85;;;9.50;1.00;;;;;;7376580;19;20014;-72
2023/11/06 08:05:42;;;;;;;4.30;1.00;;;9.60;1.00;;;;;;7383271;19;20014;-72
2023/11/06 08:08:12;;;;;;;2.33;0.75;;;9.70;1.00;;;;;;7381074;19;20022;-71
2023/11/06 08:10:45;;;;;;;3.20;0.80;;;9.80;1.00;;;;;;7383338;19;20479;-72
2023/11/06 08:13:15;;;;;;;6.13;0.93;;;9.90;1.00;;;;;;7380021;19;20151;-72
2023/11/06 08:15:45;;;;;;;8.30;4.90;;;9.90;1.00;;;;;;7381199;19;20035;-72
2023/11/06 08:18:16;;;;;;;3.60;1.02;;;10.00;1.00;;;;;;7382184;19;20039;-72
2023/11/06 08:20:46;;;;;;;1.38;0.70;;;10.10;1.00;;;;;;7380583;19;20006;-71
2023/11/06 08:23:16;;;;;;;2.58;1.17;;;10.20;1.00;;;;;;7380137;19;20459;-72
2023/11/06 08:25:48;;;;;;;1.90;0.90;;;10.30;1.00;;;;;;7381278;19;20013;-72
2023/11/06 08:28:18;;;;;;;4.38;1.00;;;10.40;1.00;;;;;;7381040;19;20081;-72
2023/11/06 08:30:48;;;;;;;2.88;0.90;;;10.40;1.00;;;;;;7379996;19;20014;-72
2023/11/06 08:33:18;;;;;;;2.20;0.90;;;10.60;1.00;;;;;;7379581;19;20088;-72
2023/11/06 08:35:48;;;;;;;2.17;0.90;;;10.60;1.00;;;;;;7379146;19;20011;-71
2023/11/06 08:38:18;;;;;;;5.57;1.00;;;10.60;1.00;;;;;;7380618;19;20350;-71
2023/11/06 08:40:53;;;;;;;4.03;0.90;;;10.70;1.00;;;;;;7380829;19;20007;-70
2023/11/06 08:43:24;;;;;;;3.50;0.80;;;10.80;1.00;;;;;;7379749;19;20078;-72
2023/11/06 08:45:56;;;;;;;4.60;1.10;;;10.90;1.00;;;;;;7381287;19;20173;-72
2023/11/06 08:48:26;;;;;;;6.78;1.25;;;10.90;1.00;;;;;;7380460;19;20481;-71
2023/11/06 08:50:56;;;;;;;2.38;0.90;;;11.00;1.00;;;;;;7380500;19;20142;-74
2023/11/06 08:53:26;;;;;;;2.63;0.80;;;11.00;1.00;;;;;;7380293;19;20010;-71
2023/11/06 08:55:59;;;;;;;2.47;0.80;;;11.20;1.00;;;;;;7380718;19;20482;-71
2023/11/06 08:58:29;;;;;;;3.63;1.23;;;11.20;1.00;;;;;;7378952;19;20010;-72
2023/11/06 09:01:00;;;;;;;3.47;0.95;;;11.20;1.00;;;;;;7381490;19;20036;-71
2023/11/06 09:03:30;;;;;;;5.03;0.90;;;11.30;1.00;;;;;;7378244;19;20094;-72
2023/11/06 09:06:00;;;;;;;1.83;0.73;;;11.40;1.00;;;;;;7379586;19;20015;-71
2023/11/06 09:08:31;;;;;;;1.67;0.65;;;11.50;1.00;;;;;;7380402;19;20467;-72
2023/11/06 09:11:03;;;;;;;2.60;0.80;;;11.40;1.00;;;;;;7382083;19;20017;-71
2023/11/06 09:13:36;;;;;;;1.52;0.77;;;11.30;1.00;;;;;;7376717;19;20018;-71
2023/11/06 09:16:08;;;;;;;1.65;0.70;;;11.30;1.00;;;;;;7380228;19;20007;-71
2023/11/06 09:18:39;;;;;;;7.25;4.80;;;11.30;1.00;;;;;;7380798;19;20014;-75
2023/11/06 09:21:13;;;;;;;2.03;0.80;;;11.50;1.00;;;;;;7381137;19;20024;-71
2023/11/06 09:23:43;;;;;;;1.70;0.77;;;11.70;1.00;;;;;;7374144;19;20751;-72
2023/11/06 09:26:16;;;;;;;4.07;0.60;;;11.70;1.00;;;;;;7379787;19;20010;-72
2023/11/06 09:28:46;;;;;;;1.65;0.80;;;11.70;1.00;;;;;;7379517;19;20490;-72
2023/11/06 09:31:17;;;;;;;3.47;0.70;;;11.90;1.00;;;;;;7379237;19;20036;-72
2023/11/06 09:33:46;;;;;;;4.28;1.08;;;11.90;1.00;;;;;;7378901;19;20010;-72
2023/11/06 09:36:17;;;;;;;1.92;0.80;;;12.00;1.00;;;;;;7398277;19;20002;-72
2023/11/06 09:38:47;;;;;;;4.00;0.77;;;12.10;1.00;;;;;;7383592;19;20357;-71
2023/11/06 09:41:22;;;;;;;1.50;0.70;;;12.20;1.00;;;;;;7378773;19;20010;-71
2023/11/06 09:43:52;;;;;;;4.43;0.80;;;12.20;1.00;;;;;;7376869;19;20038;-72
2023/11/06 09:46:24;;;;;;;4.53;0.90;;;12.30;1.00;;;;;;7379024;19;20014;-72
2023/11/06 09:48:56;;;;;;;2.58;0.68;;;12.30;1.00;;;;;;7378884;19;20078;-72
2023/11/06 09:51:36;;;;;;;1.52;0.68;;;12.30;1.00;;;;;;7379311;19;20341;-72
2023/11/06 09:54:08;;;;;;;2.22;0.68;;;12.30;1.00;;;;;;7378564;19;20551;-71
2023/11/06 09:56:45;;;;;;;1.52;0.70;;;12.40;1.00;;;;;;7378469;19;20435;-71
2023/11/06 09:59:18;;;;;;;2.28;0.95;;;12.50;1.00;;;;;;7370630;19;20014;-72
2023/11/06 10:01:48;;;;;;;3.20;0.82;;;12.50;1.00;;;;;;7377258;19;20039;-72
2023/11/06 10:04:18;;;;;;;2.17;0.93;;;12.50;1.00;;;;;;7376882;19;20406;-72
2023/11/06 10:06:51;;;;;;;4.38;0.82;;;12.60;1.00;;;;;;7377039;19;20049;-72
2023/11/06 10:09:23;;;;;;;2.85;0.50;;;12.70;1.00;;;;;;7377873;19;20039;-72
2023/11/06 10:11:57;;;;;;;1.38;0.43;;;12.60;1.00;;;;;;7377747;19;20432;-72
2023/11/06 10:14:40;;;;;;;4.40;0.98;;;12.60;1.00;;;;;;7376454;19;20454;-73
2023/11/06 10:17:12;;;;;;;1.77;0.60;;;12.70;1.00;;;;;;7377517;19;20002;-72
2023/11/06 10:19:43;;;;;;;2.90;0.40;;;12.80;1.00;;;;;;7375652;19;20597;-71
2023/11/06 10:22:14;;;;;;;1.25;0.47;;;12.90;1.00;;;;;;7375886;19;20395;-72
2023/11/06 10:24:53;;;;;;;1.95;0.80;;;12.90;1.00;;;;;;7373652;19;20056;-72
2023/11/06 10:27:33;;;;;;;4.90;0.65;;;12.90;1.00;;;;;;7375979;19;20086;-71
2023/11/06 10:30:07;;;;;;;1.27;0.60;;;12.80;1.00;;;;;;7377648;19;20015;-71
2023/11/06 10:32:37;;;;;;;1.30;0.52;;;13.00;1.00;;;;;;7374627;19;20078;-71
2023/11/06 10:35:15;;;;;;;3.13;1.00;;;13.20;1.00;;;;;;7376805;19;20015;-71
2023/11/06 10:37:46;;;;;;;3.33;0.77;;;13.20;1.00;;;;;;7374590;19;20081;-72
2023/11/06 10:40:18;;;;;;;6.07;4.10;;;13.20;1.00;;;;;;7376851;19;19999;-72
2023/11/06 10:42:51;;;;;;;1.58;0.63;;;13.20;1.00;;;;;;7375963;19;20478;-71
2023/11/06 10:45:22;;;;;;;1.15;0.50;;;13.30;1.00;;;;;;7375710;19;20498;-72
2023/11/06 10:47:56;;;;;;;1.25;0.50;;;13.30;1.00;;;;;;7375683;19;20010;-73
2023/11/06 10:50:26;;;;;;;;;;;13.10;1.00;;;;;;7377477;19;20018;-72
2023/11/06 10:52:59;;;;;;;5.72;1.02;;;13.30;1.00;;;;;;7376024;19;19918;-72
2023/11/06 10:55:31;;;;;;;1.20;0.60;;;13.50;1.00;;;;;;7376736;19;20010;-72
2023/11/06 10:58:05;;;;;;;1.73;0.60;;;13.50;1.00;;;;;;7375934;19;20002;-73
2023/11/06 11:00:35;;;;;;;2.47;0.75;;;13.90;1.00;;;;;;7375155;19;20131;-73
2023/11/06 11:03:06;;;;;;;0.82;0.52;;;13.80;1.00;;;;;;7375901;19;20078;-73
2023/11/06 11:05:37;;;;;;;2.15;0.70;;;13.90;1.00;;;;;;7376993;19;20003;-73
2023/11/06 11:08:09;;;;;;;3.42;1.60;;;13.60;1.00;;;;;;7377222;19;20010;-72
2023/11/06 11:10:39;;;;;;;1.98;0.73;;;13.50;1.00;;;;;;7378039;19;20518;-72
2023/11/06 11:13:13;;;;;;;2.17;0.90;;;13.40;1.00;;;;;;7376420;19;20022;-72
2023/11/06 11:15:43;;;;;;;1.52;0.82;;;13.40;1.00;;;;;;7375287;19;20019;-73
2023/11/06 11:18:13;;;;;;;1.40;0.68;;;13.40;1.00;;;;;;7371429;19;20056;-72
2023/11/06 11:20:55;;;;;;;3.92;0.50;;;13.60;1.00;;;;;;7372775;19;20143;-72
2023/11/06 11:23:39;;;;;;;3.55;0.88;;;13.60;1.00;;;;;;6863598;19;2004630;-73
2023/11/06 11:26:12;;;;;;;1.10;0.57;;;13.60;1.00;;;;;;7377433;19;20562;-72
2023/11/06 11:28:58;;;;;;;1.67;0.55;;;13.60;1.00;;;;;;7376209;19;20007;-72
2023/11/06 11:31:39;;;;;;;1.38;0.30;;;13.60;1.00;;;;;;6863945;19;2004750;-73
2023/11/06 11:34:10;;;;;;;2.50;1.60;;;13.50;1.00;;;;;;7373094;19;20032;-72
2023/11/06 11:36:41;;;;;;;2.75;0.47;;;13.40;1.00;;;;;;7381541;19;20017;-73
2023/11/06 11:39:17;;;;;;;3.47;1.20;;;13.30;1.00;;;;;;7382824;19;20006;-70
2023/11/06 11:42:17;;;;;;;1.42;0.52;;;13.30;1.00;;;;;;7381924;19;20039;-72
2023/11/06 11:44:59;;;;;;;1.52;0.50;;;13.10;1.00;;;;;;7378366;19;20040;-71
2023/11/06 11:47:55;;;;;;;2.53;0.50;;;13.10;1.00;;;;;;7381494;19;20011;-72
2023/11/06 11:50:44;;;;;;;1.15;0.40;;;13.10;1.00;;;;;;6870365;19;2004065;-73
2023/11/06 11:53:33;;;;;;;1.98;1.25;;;13.10;1.00;;;;;;7380817;19;20114;-72
2023/11/06 11:56:04;;;;;;;4.68;1.25;;;13.20;1.00;;;;;;6871758;19;2004786;-72
2023/11/06 11:58:44;;;;;;;1.38;0.63;;;13.20;1.00;;;;;;7381772;19;20640;-71
2023/11/06 12:01:17;;;;;;;0.82;0.50;;;13.20;1.00;;;;;;7380769;19;20006;-70
2023/11/06 12:03:47;;;;;;;1.30;0.40;;;13.00;1.00;;;;;;7378032;19;20010;-70
2023/11/06 12:06:17;;;;;;;3.72;1.08;;;13.00;1.00;;;;;;7379375;19;20011;-70
2023/11/06 12:08:58;;;;;;;0.57;0.30;;;13.00;1.00;;;;;;7380654;19;20037;-71
2023/11/06 12:11:29;;;;;;;2.55;0.85;;;12.90;1.00;;;;;;7381393;19;20550;-71
2023/11/06 12:14:02;;;;;;;2.05;0.47;;;12.90;1.00;;;;;;7379373;19;20063;-72
2023/11/06 12:16:35;;;;;;;2.33;0.93;;;13.00;1.00;;;;;;7381622;19;20018;-72
2023/11/06 12:19:04;;;;;;;1.45;0.75;;;13.00;1.00;;;;;;7381640;19;20018;-71
2023/11/06 12:21:35;;;;;;;1.38;0.50;;;13.00;1.00;;;;;;7379728;19;20097;-71
2023/11/06 12:24:08;;;;;;;2.00;0.80;;;13.00;1.00;;;;;;7379072;19;20015;-71
2023/11/06 12:26:38;;;;;;;2.08;0.70;;;12.90;1.00;;;;;;7381045;19;20076;-72
2023/11/06 12:29:08;;;;;;;1.33;0.50;;;12.90;1.00;;;;;;7381528;19;20002;-71
2023/11/06 12:31:41;;;;;;;0.98;0.50;;;12.90;1.00;;;;;;7379944;19;20049;-70
2023/11/06 12:34:21;;;;;;;1.17;0.50;;;13.00;1.00;;;;;;7380521;19;20010;-71
2023/11/06 12:37:00;;;;;;;1.63;0.30;;;13.00;1.00;;;;;;7382155;19;20036;-70
2023/11/06 12:39:33;;;;;;;3.25;1.70;;;12.90;1.00;;;;;;7380345;19;20010;-71
2023/11/06 12:42:03;;;;;;;3.28;1.98;;;13.10;1.00;;;;;;7380820;19;20002;-71
2023/11/06 12:44:36;;;;;;;1.83;0.80;;;13.20;1.00;;;;;;7378694;19;20343;-71
2023/11/06 12:47:12;;;;;;;;;;;13.10;1.00;;;;;;7380479;19;20102;-71
2023/11/06 12:49:50;;;;;;;2.47;0.50;;;13.00;1.00;;;;;;7381401;19;19919;-71
2023/11/06 12:52:21;;;;;;;0.90;0.57;;;13.10;1.00;;;;;;7379704;19;20014;-70
2023/11/06 12:54:52;;;;;;;1.42;0.50;;;13.00;1.00;;;;;;7378288;19;20492;-72
2023/11/06 12:57:28;;;;;;;1.67;0.60;;;13.00;1.00;;;;;;7379286;19;20537;-72
2023/11/06 12:59:59;;;;;;;1.55;0.50;;;13.10;1.00;;;;;;7380653;19;20013;-70
2023/11/06 13:02:33;;;;;;;4.15;0.90;;;13.10;1.00;;;;;;7404731;19;20015;-72
2023/11/06 13:05:04;;;;;;;2.42;0.82;;;13.10;1.00;;;;;;7381356;19;20014;-72
2023/11/06 13:07:34;;;;;;;1.83;0.43;;;13.10;1.00;;;;;;7379544;19;20517;-72
2023/11/06 13:10:05;;;;;;;4.53;1.48;;;13.20;1.00;;;;;;7381283;19;20010;-72
2023/11/06 13:12:35;;;;;;;3.88;0.63;;;13.20;1.00;;;;;;7378036;19;20043;-72
2023/11/06 13:15:10;;;;;;;1.63;0.70;;;13.20;1.00;;;;;;7377419;19;20082;-72
2023/11/06 13:17:43;;;;;;;2.55;0.63;;;13.20;1.00;;;;;;7377214;19;20089;-72
2023/11/06 13:20:28;;;;;;;1.00;0.35;;;13.30;1.00;;;;;;7379532;19;20010;-72
2023/11/06 13:22:59;;;;;;;0.40;0.30;;;13.30;1.00;;;;;;7371962;19;20027;-71
2023/11/06 13:25:30;;;;;;;0.50;0.30;;;13.30;1.00;;;;;;7377249;19;20332;-72